Time;durP1;ratioP1;P1;durP2;ratioP2;P2;SDS_P1;SDS_P2;PMS_P1;PMS_P2;Temp;Humidity;BMP_temperature;BMP_pressure;BME280_temperature;BME280_humidity;BME280_pressure;Samples;Min_cycle;Max_cycle;Signal;HPM_P1;HPM_P2
2023/09/02 00:01:40;;;;;;;30.38;13.18;;;;;;;;;;5085538;28;20051;-75
2023/09/02 00:04:10;;;;;;;21.17;12.65;;;;;;;;;;5087348;28;20416;-77
2023/09/02 00:06:42;;;;;;;23.02;13.52;;;;;;;;;;5073339;28;20044;-77
2023/09/02 00:09:13;;;;;;;25.77;13.80;;;;;;;;;;5065362;28;20059;-77
2023/09/02 00:11:43;;;;;;;28.42;14.77;;;;;;;;;;5068590;28;20507;-77
2023/09/02 00:14:14;;;;;;;28.52;14.05;;;;;;;;;;5072684;28;20602;-75
2023/09/02 00:16:44;;;;;;;29.15;13.13;;;;;;;;;;5078611;28;20398;-76
2023/09/02 00:19:14;;;;;;;23.35;12.38;;;;;;;;;;5076376;28;20040;-76
2023/09/02 00:21:44;;;;;;;25.35;13.98;;;;;;;;;;5075294;28;20040;-76
2023/09/02 00:24:15;;;;;;;21.70;11.60;;;;;;;;;;5078022;28;20083;-74
2023/09/02 00:26:48;;;;;;;29.33;14.05;;;;;;;;;;5077035;28;20522;-76
2023/09/02 00:29:18;;;;;;;21.10;12.02;;;;;;;;;;5077381;28;20415;-77
2023/09/02 00:31:50;;;;;;;22.02;12.50;;;;;;;;;;5079750;28;20488;-77
2023/09/02 00:34:20;;;;;;;29.25;12.50;;;;;;;;;;5085049;28;20050;-78
2023/09/02 00:36:50;;;;;;;31.45;13.73;;;;;;;;;;5085402;28;20044;-77
2023/09/02 00:39:21;;;;;;;22.33;12.45;;;;;;;;;;5085592;28;20040;-77
2023/09/02 00:41:55;;;;;;;20.48;12.05;;;;;;;;;;5086250;28;20063;-78
2023/09/02 00:44:26;;;;;;;19.75;12.30;;;;;;;;;;5086764;28;20510;-75
2023/09/02 00:47:00;;;;;;;23.30;14.93;;;;;;;;;;5085606;28;20515;-76
2023/09/02 00:49:32;;;;;;;24.95;15.18;;;;;;;;;;5084634;28;20063;-76
2023/09/02 00:52:03;;;;;;;24.08;13.00;;;;;;;;;;5086648;28;20367;-76
2023/09/02 00:54:34;;;;;;;29.20;14.57;;;;;;;;;;5084845;28;20048;-77
2023/09/02 00:57:07;;;;;;;26.92;12.70;;;;;;;;;;5085475;28;20407;-77
2023/09/02 00:59:37;;;;;;;22.08;14.25;;;;;;;;;;5085237;28;20071;-76
2023/09/02 01:02:10;;;;;;;18.25;11.40;;;;;;;;;;5084312;28;20426;-77
2023/09/02 01:04:40;;;;;;;20.83;13.27;;;;;;;;;;5085388;28;20140;-77
2023/09/02 01:07:12;;;;;;;22.23;11.10;;;;;;;;;;5086139;28;20896;-75
2023/09/02 01:09:42;;;;;;;20.95;12.13;;;;;;;;;;5086815;28;20051;-76
2023/09/02 01:12:14;;;;;;;20.77;12.20;;;;;;;;;;5087138;28;20067;-76
2023/09/02 01:14:44;;;;;;;22.65;14.27;;;;;;;;;;5085871;28;20044;-76
2023/09/02 01:17:15;;;;;;;18.88;11.50;;;;;;;;;;5084683;28;20442;-76
2023/09/02 01:19:48;;;;;;;21.27;13.15;;;;;;;;;;5086520;28;20044;-73
2023/09/02 01:22:58;;;;;;;21.23;12.95;;;;;;;;;;5086296;28;20063;-78
2023/09/02 01:25:47;;;;;;;23.35;12.18;;;;;;;;;;5059537;28;20063;-77
2023/09/02 01:28:32;;;;;;;24.08;12.20;;;;;;;;;;5085056;28;20067;-76
2023/09/02 01:31:05;;;;;;;21.67;11.35;;;;;;;;;;5086198;28;20043;-76
2023/09/02 01:33:37;;;;;;;;;;;;;;;;;;5085416;28;20057;-76
2023/09/02 01:36:12;;;;;;;17.00;10.82;;;;;;;;;;5086398;28;19931;-76
2023/09/02 01:38:44;;;;;;;19.48;12.68;;;;;;;;;;5086785;28;20524;-77
2023/09/02 01:41:15;;;;;;;20.33;12.63;;;;;;;;;;5085912;28;20055;-76
2023/09/02 01:43:48;;;;;;;20.33;12.98;;;;;;;;;;5085297;28;20059;-75
2023/09/02 01:46:18;;;;;;;19.20;13.32;;;;;;;;;;5086718;28;20517;-76
2023/09/02 01:48:50;;;;;;;16.40;10.95;;;;;;;;;;5090165;28;20044;-77
2023/09/02 01:51:21;;;;;;;18.38;12.20;;;;;;;;;;5088573;28;20059;-76
2023/09/02 01:53:52;;;;;;;20.85;12.15;;;;;;;;;;5090335;28;20062;-76
2023/09/02 01:56:23;;;;;;;26.70;14.90;;;;;;;;;;5088182;28;20055;-76
2023/09/02 01:58:54;;;;;;;22.13;13.48;;;;;;;;;;5084031;28;20052;-76
2023/09/02 02:01:25;;;;;;;16.58;11.02;;;;;;;;;;5083571;28;20568;-77
2023/09/02 02:04:25;;;;;;;14.23;10.57;;;;;;;;;;5087317;28;20044;-74
2023/09/02 02:07:03;;;;;;;19.48;10.65;;;;;;;;;;5054568;28;20056;-75
2023/09/02 02:09:41;;;;;;;16.10;11.20;;;;;;;;;;5089755;28;20402;-75
2023/09/02 02:12:13;;;;;;;22.00;11.95;;;;;;;;;;5089742;28;20391;-77
2023/09/02 02:14:45;;;;;;;19.45;13.40;;;;;;;;;;5089597;28;20051;-76
2023/09/02 02:17:16;;;;;;;21.48;11.68;;;;;;;;;;5089110;28;20759;-77
2023/09/02 02:19:48;;;;;;;20.05;12.10;;;;;;;;;;5087948;28;20059;-76
2023/09/02 02:22:20;;;;;;;20.02;12.90;;;;;;;;;;5089541;28;20044;-76
2023/09/02 02:24:50;;;;;;;15.27;11.13;;;;;;;;;;5089505;28;20048;-75
2023/09/02 02:27:20;;;;;;;18.75;10.70;;;;;;;;;;5089226;28;20048;-76
2023/09/02 02:29:50;;;;;;;18.13;11.13;;;;;;;;;;5089334;28;20047;-76
2023/09/02 02:32:21;;;;;;;17.95;12.75;;;;;;;;;;5089647;28;20044;-76
2023/09/02 02:34:54;;;;;;;14.20;10.63;;;;;;;;;;5089705;28;20410;-76
2023/09/02 02:37:24;;;;;;;13.10;9.95;;;;;;;;;;5089982;28;20047;-75
2023/09/02 02:39:54;;;;;;;15.82;10.60;;;;;;;;;;5089348;28;20078;-76
2023/09/02 02:42:25;;;;;;;20.77;12.27;;;;;;;;;;5089406;28;20055;-75
2023/09/02 02:44:55;;;;;;;16.33;11.45;;;;;;;;;;5089247;28;20048;-75
2023/09/02 02:47:26;;;;;;;18.70;10.75;;;;;;;;;;5088898;28;20051;-75
2023/09/02 02:49:56;;;;;;;19.58;13.05;;;;;;;;;;5087991;28;20512;-75
2023/09/02 02:52:27;;;;;;;20.50;11.07;;;;;;;;;;5088666;28;20051;-75
2023/09/02 02:54:57;;;;;;;16.02;11.35;;;;;;;;;;5087605;28;20529;-75
2023/09/02 02:57:28;;;;;;;16.08;9.82;;;;;;;;;;5088287;28;20503;-76
2023/09/02 02:59:58;;;;;;;21.17;10.70;;;;;;;;;;5087367;28;20048;-75
2023/09/02 03:02:29;;;;;;;18.98;10.82;;;;;;;;;;5087114;28;20055;-75
2023/09/02 03:04:59;;;;;;;17.50;12.57;;;;;;;;;;5086473;28;20059;-76
2023/09/02 03:07:30;;;;;;;20.90;12.23;;;;;;;;;;5087333;28;20558;-76
2023/09/02 03:10:00;;;;;;;17.38;12.15;;;;;;;;;;5087110;28;20052;-75
2023/09/02 03:12:32;;;;;;;19.05;11.23;;;;;;;;;;5086702;28;20059;-75
2023/09/02 03:15:05;;;;;;;16.90;12.43;;;;;;;;;;5086916;28;20056;-75
2023/09/02 03:17:36;;;;;;;17.65;10.70;;;;;;;;;;5086716;28;20048;-75
2023/09/02 03:20:08;;;;;;;15.13;11.45;;;;;;;;;;5086867;28;20098;-75
2023/09/02 03:22:42;;;;;;;22.48;12.35;;;;;;;;;;5086311;28;20059;-74
2023/09/02 03:25:14;;;;;;;16.83;11.60;;;;;;;;;;5087718;28;20074;-74
2023/09/02 03:27:47;;;;;;;14.55;10.13;;;;;;;;;;5086858;28;20048;-75
2023/09/02 03:30:19;;;;;;;15.60;10.63;;;;;;;;;;5086388;28;20556;-75
2023/09/02 03:32:50;;;;;;;15.85;11.18;;;;;;;;;;5070332;28;20044;-75
2023/09/02 03:35:48;;;;;;;17.35;11.27;;;;;;;;;;5088554;28;20036;-75
2023/09/02 03:38:19;;;;;;;17.60;12.18;;;;;;;;;;5087414;28;20051;-76
2023/09/02 03:40:49;;;;;;;15.88;11.18;;;;;;;;;;5088499;28;20048;-76
2023/09/02 03:43:19;;;;;;;20.27;10.80;;;;;;;;;;5088007;28;20075;-75
2023/09/02 03:45:51;;;;;;;18.27;11.43;;;;;;;;;;5085752;28;20055;-75
2023/09/02 03:48:23;;;;;;;19.25;10.70;;;;;;;;;;5086323;28;20063;-75
2023/09/02 03:51:05;;;;;;;14.77;10.43;;;;;;;;;;5085913;28;20051;-75
2023/09/02 03:53:37;;;;;;;17.10;9.80;;;;;;;;;;5086290;28;20404;-76
2023/09/02 03:56:08;;;;;;;17.10;11.77;;;;;;;;;;5087782;28;20044;-76
2023/09/02 03:58:40;;;;;;;21.00;11.70;;;;;;;;;;5085922;28;20056;-75
2023/09/02 04:01:12;;;;;;;14.73;10.65;;;;;;;;;;5085975;28;20052;-75
2023/09/02 04:03:43;;;;;;;16.73;12.00;;;;;;;;;;5086010;28;20503;-76
2023/09/02 04:06:14;;;;;;;15.63;11.68;;;;;;;;;;5085662;28;20055;-76
2023/09/02 04:08:46;;;;;;;15.57;10.73;;;;;;;;;;5085709;28;20052;-75
2023/09/02 04:11:16;;;;;;;19.00;11.60;;;;;;;;;;5085229;28;20479;-75
2023/09/02 04:13:46;;;;;;;17.80;11.80;;;;;;;;;;5086634;28;20049;-76
2023/09/02 04:16:16;;;;;;;14.88;10.82;;;;;;;;;;5085480;28;20545;-75
2023/09/02 04:18:47;;;;;;;19.73;12.00;;;;;;;;;;5085298;28;20063;-75
2023/09/02 04:21:18;;;;;;;19.70;11.38;;;;;;;;;;5087097;28;20048;-75
2023/09/02 04:23:49;;;;;;;14.65;11.23;;;;;;;;;;5085508;28;20083;-75
2023/09/02 04:26:21;;;;;;;15.60;10.27;;;;;;;;;;5086441;28;20052;-75
2023/09/02 04:28:52;;;;;;;17.77;10.90;;;;;;;;;;5087506;28;20063;-75
2023/09/02 04:31:25;;;;;;;16.23;11.27;;;;;;;;;;5085160;28;20059;-75
2023/09/02 04:33:58;;;;;;;20.65;10.65;;;;;;;;;;5085649;28;20403;-76
2023/09/02 04:36:29;;;;;;;15.52;10.30;;;;;;;;;;5085444;28;20056;-75
2023/09/02 04:38:59;;;;;;;21.65;12.40;;;;;;;;;;5085755;28;20071;-75
2023/09/02 04:41:30;;;;;;;18.00;11.70;;;;;;;;;;5084782;28;20052;-73
2023/09/02 04:44:00;;;;;;;17.70;11.27;;;;;;;;;;5085340;28;20052;-71
2023/09/02 04:46:31;;;;;;;18.40;10.23;;;;;;;;;;5085019;28;20052;-73
2023/09/02 04:49:01;;;;;;;17.58;11.52;;;;;;;;;;5086158;28;20040;-72
2023/09/02 04:51:32;;;;;;;16.08;11.20;;;;;;;;;;5086235;28;20047;-71
2023/09/02 04:54:02;;;;;;;15.70;10.73;;;;;;;;;;5085032;28;20055;-72
2023/09/02 04:56:33;;;;;;;14.32;10.82;;;;;;;;;;5085245;28;20056;-72
2023/09/02 04:59:04;;;;;;;14.68;10.85;;;;;;;;;;5084920;28;20066;-72
2023/09/02 05:01:35;;;;;;;15.52;10.48;;;;;;;;;;5085519;28;20059;-72
2023/09/02 05:04:06;;;;;;;15.57;10.77;;;;;;;;;;5086953;28;20040;-72
2023/09/02 05:06:37;;;;;;;15.48;9.00;;;;;;;;;;5086143;28;20396;-72
2023/09/02 05:09:08;;;;;;;13.65;9.48;;;;;;;;;;5084513;28;20427;-72
2023/09/02 05:11:39;;;;;;;26.95;10.88;;;;;;;;;;5086523;28;20059;-72
2023/09/02 05:14:10;;;;;;;16.05;10.30;;;;;;;;;;5085525;28;20040;-75
2023/09/02 05:16:41;;;;;;;12.63;8.90;;;;;;;;;;5084711;28;20533;-75
2023/09/02 05:19:11;;;;;;;14.20;9.23;;;;;;;;;;5087112;28;20052;-75
2023/09/02 05:21:44;;;;;;;15.43;9.98;;;;;;;;;;5067895;28;20533;-75
2023/09/02 05:24:15;;;;;;;17.88;10.90;;;;;;;;;;5085851;28;20048;-75
2023/09/02 05:26:45;;;;;;;15.82;9.95;;;;;;;;;;5086027;28;20419;-74
2023/09/02 05:29:18;;;;;;;14.65;10.80;;;;;;;;;;5086888;28;20044;-75
2023/09/02 05:31:48;;;;;;;12.73;9.32;;;;;;;;;;5086827;28;20494;-74
2023/09/02 05:34:19;;;;;;;15.75;10.15;;;;;;;;;;5086219;28;20048;-74
2023/09/02 05:36:49;;;;;;;16.30;8.77;;;;;;;;;;5086307;28;20426;-75
2023/09/02 05:39:19;;;;;;;15.50;10.35;;;;;;;;;;5084476;28;20055;-74
2023/09/02 05:41:50;;;;;;;12.63;9.68;;;;;;;;;;5084371;28;20517;-75
2023/09/02 05:44:20;;;;;;;14.98;10.20;;;;;;;;;;5085691;28;20051;-75
2023/09/02 05:46:51;;;;;;;18.20;10.40;;;;;;;;;;5086091;28;20040;-75
2023/09/02 05:49:21;;;;;;;12.70;9.35;;;;;;;;;;5086268;28;20047;-75
2023/09/02 05:51:51;;;;;;;11.80;8.88;;;;;;;;;;5085428;28;20106;-75
2023/09/02 05:54:22;;;;;;;12.77;9.10;;;;;;;;;;5085620;28;20052;-74
2023/09/02 05:56:52;;;;;;;13.82;10.35;;;;;;;;;;5085909;28;20055;-75
2023/09/02 05:59:24;;;;;;;14.40;9.05;;;;;;;;;;5084505;28;20063;-72
2023/09/02 06:01:56;;;;;;;15.77;10.65;;;;;;;;;;5084782;28;20048;-75
2023/09/02 06:04:27;;;;;;;14.65;9.50;;;;;;;;;;5085798;28;20495;-75
2023/09/02 06:06:57;;;;;;;15.90;10.45;;;;;;;;;;5085924;28;20055;-74
2023/09/02 06:09:29;;;;;;;13.98;10.98;;;;;;;;;;5085784;28;20052;-75
2023/09/02 06:11:59;;;;;;;15.45;10.13;;;;;;;;;;5085656;28;20059;-74
2023/09/02 06:14:29;;;;;;;12.55;8.23;;;;;;;;;;5085218;28;20036;-74
2023/09/02 06:17:00;;;;;;;14.63;8.75;;;;;;;;;;5085355;28;20048;-75
2023/09/02 06:19:31;;;;;;;16.75;8.88;;;;;;;;;;5085895;28;20067;-75
2023/09/02 06:22:02;;;;;;;10.73;9.07;;;;;;;;;;5085790;28;20517;-74
2023/09/02 06:24:32;;;;;;;14.10;9.30;;;;;;;;;;5085093;28;20099;-74
2023/09/02 06:27:05;;;;;;;24.00;10.18;;;;;;;;;;5085017;28;20059;-74
2023/09/02 06:29:37;;;;;;;14.45;9.00;;;;;;;;;;5085802;28;20052;-74
2023/09/02 06:32:07;;;;;;;19.27;10.70;;;;;;;;;;5084677;28;20473;-73
2023/09/02 06:34:38;;;;;;;13.85;8.75;;;;;;;;;;5088661;28;20055;-74
2023/09/02 06:37:08;;;;;;;12.63;7.78;;;;;;;;;;5089318;28;20399;-74
2023/09/02 06:39:38;;;;;;;11.45;8.43;;;;;;;;;;5087360;28;20514;-75
2023/09/02 06:42:09;;;;;;;13.07;8.50;;;;;;;;;;5089251;28;20414;-74
2023/09/02 06:44:40;;;;;;;14.10;8.68;;;;;;;;;;5087705;28;20568;-75
2023/09/02 06:47:10;;;;;;;11.48;9.10;;;;;;;;;;5088573;28;20051;-75
2023/09/02 06:49:40;;;;;;;15.57;10.00;;;;;;;;;;5089165;28;20052;-74
2023/09/02 06:52:10;;;;;;;15.20;9.57;;;;;;;;;;5087079;28;20073;-74
2023/09/02 06:54:42;;;;;;;12.63;8.63;;;;;;;;;;5089162;28;20044;-74
2023/09/02 06:57:12;;;;;;;11.75;8.43;;;;;;;;;;5088817;28;20048;-74
2023/09/02 06:59:43;;;;;;;14.45;8.73;;;;;;;;;;5089323;28;20055;-75
2023/09/02 07:02:13;;;;;;;16.73;8.77;;;;;;;;;;5088950;28;20055;-74
2023/09/02 07:04:43;;;;;;;14.82;8.55;;;;;;;;;;5088114;28;20040;-74
2023/09/02 07:07:14;;;;;;;19.05;8.95;;;;;;;;;;5088584;28;20050;-77
2023/09/02 07:09:47;;;;;;;12.68;8.65;;;;;;;;;;5088711;28;20419;-75
2023/09/02 07:12:17;;;;;;;12.52;8.85;;;;;;;;;;5088718;28;20067;-74
2023/09/02 07:14:48;;;;;;;13.75;8.88;;;;;;;;;;5088540;28;20052;-74
2023/09/02 07:17:19;;;;;;;12.55;8.60;;;;;;;;;;5088739;28;20040;-74
2023/09/02 07:19:49;;;;;;;14.20;9.77;;;;;;;;;;5088690;28;20044;-74
2023/09/02 07:22:20;;;;;;;15.85;9.90;;;;;;;;;;5088383;28;20043;-74
2023/09/02 07:24:53;;;;;;;17.25;9.07;;;;;;;;;;5088214;28;20170;-75
2023/09/02 07:27:24;;;;;;;14.65;8.73;;;;;;;;;;5087724;28;20044;-74
2023/09/02 07:29:55;;;;;;;11.90;8.20;;;;;;;;;;5087521;28;20506;-74
2023/09/02 07:32:25;;;;;;;13.45;7.55;;;;;;;;;;5088445;28;20040;-74
2023/09/02 07:34:56;;;;;;;10.60;7.82;;;;;;;;;;5088365;28;20051;-74
2023/09/02 07:37:30;;;;;;;16.00;8.07;;;;;;;;;;5087970;28;20052;-75
2023/09/02 07:40:00;;;;;;;17.05;9.45;;;;;;;;;;5086386;28;20044;-74
2023/09/02 07:42:30;;;;;;;12.55;7.57;;;;;;;;;;5087942;28;20044;-75
2023/09/02 07:45:00;;;;;;;12.00;7.40;;;;;;;;;;5087731;28;21217;-75
2023/09/02 07:47:30;;;;;;;12.68;7.47;;;;;;;;;;5086006;28;20071;-74
2023/09/02 07:50:02;;;;;;;14.52;7.80;;;;;;;;;;5087750;28;20044;-73
2023/09/02 07:52:32;;;;;;;11.75;7.55;;;;;;;;;;5087482;28;20050;-75
2023/09/02 07:55:03;;;;;;;14.48;7.43;;;;;;;;;;5087638;28;20047;-75
2023/09/02 07:57:34;;;;;;;12.48;8.43;;;;;;;;;;5087907;28;20495;-75
2023/09/02 08:00:05;;;;;;;12.02;7.85;;;;;;;;;;5087630;28;20052;-74
2023/09/02 08:02:41;;;;;;;12.55;8.15;;;;;;;;;;5088205;28;20048;-74
2023/09/02 08:05:12;;;;;;;11.65;8.10;;;;;;;;;;5087180;28;20063;-75
2023/09/02 08:07:42;;;;;;;10.32;7.57;;;;;;;;;;5086070;28;20062;-74
2023/09/02 08:10:13;;;;;;;13.52;8.38;;;;;;;;;;5087163;28;20055;-74
2023/09/02 08:12:43;;;;;;;12.43;7.95;;;;;;;;;;5086909;28;20121;-75
2023/09/02 08:15:14;;;;;;;13.57;7.72;;;;;;;;;;5085770;28;20059;-74
2023/09/02 08:17:45;;;;;;;9.30;7.43;;;;;;;;;;5087055;28;20486;-74
2023/09/02 08:20:17;;;;;;;10.23;6.95;;;;;;;;;;5087330;28;20044;-75
2023/09/02 08:22:47;;;;;;;10.55;6.13;;;;;;;;;;5086899;28;20052;-74
2023/09/02 08:25:17;;;;;;;9.25;6.93;;;;;;;;;;5087359;28;20039;-75
2023/09/02 08:27:48;;;;;;;11.27;6.03;;;;;;;;;;5087602;28;20044;-74
2023/09/02 08:30:18;;;;;;;7.53;5.72;;;;;;;;;;5087217;28;20403;-75
2023/09/02 08:32:49;;;;;;;12.82;5.47;;;;;;;;;;5085975;28;20056;-76
2023/09/02 08:35:19;;;;;;;10.25;5.97;;;;;;;;;;5086728;28;20059;-75
2023/09/02 08:37:51;;;;;;;8.48;6.45;;;;;;;;;;5086982;28;20063;-74
2023/09/02 08:40:22;;;;;;;7.15;5.20;;;;;;;;;;5086701;28;20040;-74
2023/09/02 08:42:53;;;;;;;9.52;6.47;;;;;;;;;;5086849;28;20051;-75
2023/09/02 08:45:26;;;;;;;8.60;5.72;;;;;;;;;;5086618;28;20052;-74
2023/09/02 08:48:01;;;;;;;9.25;7.18;;;;;;;;;;5086515;28;20321;-75
2023/09/02 08:50:32;;;;;;;16.50;7.78;;;;;;;;;;5086315;28;20533;-74
2023/09/02 08:53:02;;;;;;;11.40;7.35;;;;;;;;;;5085401;28;20055;-74
2023/09/02 08:55:34;;;;;;;12.00;6.88;;;;;;;;;;5087166;28;20411;-74
2023/09/02 08:58:06;;;;;;;12.38;7.18;;;;;;;;;;5086904;28;20048;-74
2023/09/02 09:00:37;;;;;;;10.38;6.45;;;;;;;;;;5086873;28;20059;-74
2023/09/02 09:03:13;;;;;;;10.77;6.47;;;;;;;;;;5086410;28;20040;-74
2023/09/02 09:05:45;;;;;;;11.85;6.40;;;;;;;;;;5086630;28;20056;-74
2023/09/02 09:08:16;;;;;;;8.32;5.97;;;;;;;;;;5086482;28;20044;-74
2023/09/02 09:10:49;;;;;;;12.30;7.15;;;;;;;;;;5087011;28;20044;-74
2023/09/02 09:13:20;;;;;;;9.25;7.50;;;;;;;;;;5086839;28;20044;-74
2023/09/02 09:15:54;;;;;;;12.70;6.32;;;;;;;;;;5085788;28;20050;-74
2023/09/02 09:18:24;;;;;;;9.20;6.22;;;;;;;;;;5085850;28;20047;-73
2023/09/02 09:20:56;;;;;;;8.65;5.50;;;;;;;;;;5086485;28;20042;-74
2023/09/02 09:23:26;;;;;;;8.82;6.03;;;;;;;;;;5086579;28;20407;-74
2023/09/02 09:25:57;;;;;;;8.77;6.45;;;;;;;;;;5086962;28;20044;-75
2023/09/02 09:28:27;;;;;;;7.32;5.60;;;;;;;;;;5084445;28;20081;-81
2023/09/02 09:30:57;;;;;;;13.18;6.47;;;;;;;;;;5086014;28;20051;-74
2023/09/02 09:33:28;;;;;;;8.20;6.05;;;;;;;;;;5086205;28;20044;-74
2023/09/02 09:36:11;;;;;;;12.77;5.22;;;;;;;;;;5085894;28;20040;-73
2023/09/02 09:38:41;;;;;;;11.85;5.97;;;;;;;;;;5085771;28;20048;-74
2023/09/02 09:41:12;;;;;;;6.50;4.78;;;;;;;;;;5086379;28;20036;-75
2023/09/02 09:43:43;;;;;;;14.02;5.00;;;;;;;;;;5086580;28;20036;-75
2023/09/02 09:46:17;;;;;;;8.60;5.45;;;;;;;;;;5084834;28;20058;-75
2023/09/02 09:48:48;;;;;;;9.35;5.60;;;;;;;;;;5085162;28;20056;-74
2023/09/02 09:51:22;;;;;;;7.30;4.47;;;;;;;;;;5085529;28;20411;-75
2023/09/02 09:53:53;;;;;;;7.25;4.97;;;;;;;;;;5086791;28;20514;-74
2023/09/02 09:56:24;;;;;;;7.35;4.90;;;;;;;;;;5086235;28;20040;-73
2023/09/02 09:58:55;;;;;;;8.55;5.05;;;;;;;;;;5085702;28;20510;-75
2023/09/02 10:01:26;;;;;;;7.88;4.82;;;;;;;;;;5086378;28;20044;-74
2023/09/02 10:03:57;;;;;;;7.15;5.05;;;;;;;;;;5085794;28;20052;-74
2023/09/02 10:06:28;;;;;;;9.30;5.15;;;;;;;;;;5085699;28;20059;-75
2023/09/02 10:08:59;;;;;;;8.75;4.88;;;;;;;;;;5088151;28;20048;-74
2023/09/02 10:11:30;;;;;;;9.20;4.18;;;;;;;;;;5089561;28;20074;-74
2023/09/02 10:14:03;;;;;;;8.90;5.55;;;;;;;;;;5087727;28;20490;-74
2023/09/02 10:16:35;;;;;;;7.22;4.82;;;;;;;;;;5089347;28;20415;-74
2023/09/02 10:19:05;;;;;;;6.00;4.40;;;;;;;;;;5089370;28;20040;-72
2023/09/02 10:21:36;;;;;;;7.57;5.32;;;;;;;;;;5089564;28;20521;-72
2023/09/02 10:24:13;;;;;;;6.90;4.25;;;;;;;;;;5090021;28;20059;-74
2023/09/02 10:26:47;;;;;;;9.40;4.80;;;;;;;;;;5089339;28;20515;-73
2023/09/02 10:29:22;;;;;;;7.45;4.53;;;;;;;;;;5089379;28;20055;-75
2023/09/02 10:31:59;;;;;;;8.23;5.32;;;;;;;;;;5089346;28;20062;-74
2023/09/02 10:34:40;;;;;;;10.57;5.68;;;;;;;;;;5089047;28;20059;-76
2023/09/02 10:37:15;;;;;;;10.38;5.47;;;;;;;;;;5089174;28;20056;-80
2023/09/02 10:39:58;;;;;;;9.00;5.05;;;;;;;;;;5087971;28;20114;-74
2023/09/02 10:42:29;;;;;;;10.30;5.03;;;;;;;;;;5088338;28;20410;-75
2023/09/02 10:45:02;;;;;;;14.45;5.47;;;;;;;;;;5088246;28;20423;-74
2023/09/02 10:47:33;;;;;;;8.00;5.53;;;;;;;;;;5088890;28;20502;-73
2023/09/02 10:50:04;;;;;;;9.15;5.75;;;;;;;;;;5087275;28;20059;-74
2023/09/02 10:52:35;;;;;;;7.15;4.93;;;;;;;;;;5087893;28;20048;-74
2023/09/02 10:55:10;;;;;;;8.05;5.25;;;;;;;;;;5089258;28;20048;-74
2023/09/02 10:57:50;;;;;;;14.10;5.75;;;;;;;;;;5089401;28;20071;-74
2023/09/02 11:00:26;;;;;;;8.98;5.72;;;;;;;;;;5088988;28;20513;-74
2023/09/02 11:02:59;;;;;;;9.32;5.25;;;;;;;;;;5087332;28;20503;-74
2023/09/02 11:06:06;;;;;;;8.73;4.90;;;;;;;;;;5088251;28;20419;-74
2023/09/02 11:08:48;;;;;;;6.97;5.07;;;;;;;;;;5088367;28;20054;-75
2023/09/02 11:11:20;;;;;;;7.60;4.65;;;;;;;;;;5088351;28;20044;-74
2023/09/02 11:14:10;;;;;;;12.18;5.03;;;;;;;;;;5088771;28;20521;-77
2023/09/02 11:16:42;;;;;;;8.80;6.13;;;;;;;;;;5088042;28;20043;-74
2023/09/02 11:19:13;;;;;;;7.75;6.10;;;;;;;;;;5087870;28;20055;-74
2023/09/02 11:21:46;;;;;;;10.20;5.80;;;;;;;;;;5088829;28;20044;-75
2023/09/02 11:24:17;;;;;;;10.73;5.25;;;;;;;;;;5088779;28;20507;-74
2023/09/02 11:26:53;;;;;;;8.73;5.22;;;;;;;;;;5088352;28;20049;-74
2023/09/02 11:29:26;;;;;;;8.75;5.78;;;;;;;;;;5088133;28;20043;-74
2023/09/02 11:31:56;;;;;;;13.48;6.15;;;;;;;;;;5088109;28;20048;-75
2023/09/02 11:34:29;;;;;;;7.15;5.10;;;;;;;;;;5087770;28;20048;-74
2023/09/02 11:37:01;;;;;;;7.72;4.50;;;;;;;;;;5087985;28;20415;-74
2023/09/02 11:39:32;;;;;;;9.95;4.72;;;;;;;;;;5087541;28;20059;-75
2023/09/02 11:42:19;;;;;;;7.07;5.22;;;;;;;;;;5088533;28;20094;-72
2023/09/02 11:45:00;;;;;;;7.32;5.03;;;;;;;;;;5087747;28;20043;-73
2023/09/02 11:47:31;;;;;;;6.88;4.93;;;;;;;;;;5088061;28;20051;-72
2023/09/02 11:50:01;;;;;;;7.68;4.38;;;;;;;;;;5087611;28;20418;-76
2023/09/02 11:52:32;;;;;;;7.88;5.07;;;;;;;;;;5087885;28;20044;-72
2023/09/02 11:55:11;;;;;;;6.72;4.00;;;;;;;;;;5088100;28;20040;-71
2023/09/02 11:57:42;;;;;;;10.43;4.32;;;;;;;;;;5087835;28;20072;-72
2023/09/02 12:00:20;;;;;;;12.45;5.88;;;;;;;;;;5087283;28;20411;-75
2023/09/02 12:02:53;;;;;;;12.80;4.43;;;;;;;;;;5087506;28;20044;-73
2023/09/02 12:05:24;;;;;;;7.85;4.50;;;;;;;;;;5087964;28;20051;-74
2023/09/02 12:07:56;;;;;;;7.63;4.70;;;;;;;;;;5087879;28;20043;-74
2023/09/02 12:10:29;;;;;;;15.45;6.32;;;;;;;;;;5087562;28;20054;-77
2023/09/02 12:13:00;;;;;;;8.35;5.38;;;;;;;;;;5086950;28;20044;-75
2023/09/02 12:15:33;;;;;;;10.02;4.95;;;;;;;;;;5087407;28;20043;-77
2023/09/02 12:18:04;;;;;;;10.57;4.82;;;;;;;;;;5087393;28;20510;-73
2023/09/02 12:20:34;;;;;;;13.05;4.85;;;;;;;;;;5087379;28;20044;-73
2023/09/02 12:23:06;;;;;;;9.85;5.82;;;;;;;;;;5086996;28;20052;-72
2023/09/02 12:25:39;;;;;;;10.38;4.95;;;;;;;;;;5085973;28;20060;-75
2023/09/02 12:28:12;;;;;;;8.90;4.53;;;;;;;;;;5086619;28;20055;-74
2023/09/02 12:30:51;;;;;;;7.05;4.65;;;;;;;;;;5085021;28;20052;-75
2023/09/02 12:33:22;;;;;;;5.20;3.80;;;;;;;;;;5087108;28;20410;-74
2023/09/02 12:35:53;;;;;;;7.28;4.13;;;;;;;;;;5086131;28;20410;-73
2023/09/02 12:38:24;;;;;;;9.85;4.45;;;;;;;;;;5086034;28;20055;-74
2023/09/02 12:40:58;;;;;;;6.20;4.68;;;;;;;;;;5086077;28;20436;-71
2023/09/02 12:43:28;;;;;;;6.10;4.70;;;;;;;;;;5086357;28;20503;-75
2023/09/02 12:45:59;;;;;;;7.82;4.40;;;;;;;;;;5086474;28;20048;-74
2023/09/02 12:48:31;;;;;;;16.75;5.43;;;;;;;;;;5086353;28;20052;-72
2023/09/02 12:51:01;;;;;;;8.45;4.65;;;;;;;;;;5087224;28;20056;-71
2023/09/02 12:53:31;;;;;;;8.32;5.03;;;;;;;;;;5086981;28;20059;-75
2023/09/02 12:56:02;;;;;;;6.85;4.60;;;;;;;;;;5087029;28;20047;-71
2023/09/02 12:58:33;;;;;;;7.72;5.40;;;;;;;;;;5085649;28;20059;-73
2023/09/02 13:01:04;;;;;;;6.82;5.40;;;;;;;;;;5083029;28;20512;-73
2023/09/02 13:03:35;;;;;;;11.68;5.63;;;;;;;;;;5082723;28;20051;-79
2023/09/02 13:06:06;;;;;;;9.38;6.07;;;;;;;;;;5082479;28;20385;-73
2023/09/02 13:08:36;;;;;;;8.30;5.60;;;;;;;;;;5081628;28;20056;-74
2023/09/02 13:11:08;;;;;;;7.90;4.85;;;;;;;;;;5080508;28;20078;-75
2023/09/02 13:13:39;;;;;;;12.32;6.28;;;;;;;;;;5082809;28;20483;-74
2023/09/02 13:16:09;;;;;;;8.02;5.32;;;;;;;;;;5086582;28;20044;-72
2023/09/02 13:18:44;;;;;;;9.65;5.18;;;;;;;;;;5087408;28;20043;-73
2023/09/02 13:21:15;;;;;;;8.95;4.97;;;;;;;;;;5086930;28;20051;-74
2023/09/02 13:23:48;;;;;;;7.15;5.20;;;;;;;;;;5086135;28;20059;-74
2023/09/02 13:26:20;;;;;;;9.27;5.80;;;;;;;;;;5086889;28;20051;-74
2023/09/02 13:28:51;;;;;;;6.53;5.13;;;;;;;;;;5086082;28;20056;-74
2023/09/02 13:31:23;;;;;;;5.85;4.95;;;;;;;;;;5086434;28;20043;-79
2023/09/02 13:33:54;;;;;;;8.55;6.35;;;;;;;;;;5085305;28;20084;-74
2023/09/02 13:36:26;;;;;;;7.97;5.25;;;;;;;;;;5086189;28;20047;-74
2023/09/02 13:38:57;;;;;;;8.00;5.05;;;;;;;;;;5068620;28;20052;-75
2023/09/02 13:41:28;;;;;;;10.25;5.18;;;;;;;;;;5086691;28;20055;-73
2023/09/02 13:44:00;;;;;;;6.53;5.35;;;;;;;;;;5090797;28;20598;-75
2023/09/02 13:46:31;;;;;;;6.85;5.40;;;;;;;;;;5089340;28;20044;-74
2023/09/02 13:49:02;;;;;;;8.10;5.30;;;;;;;;;;5089279;28;20515;-74
2023/09/02 13:51:33;;;;;;;7.82;5.03;;;;;;;;;;5087013;28;20510;-75
2023/09/02 13:54:06;;;;;;;8.15;5.05;;;;;;;;;;5069230;28;20063;-73
2023/09/02 13:56:36;;;;;;;10.13;5.55;;;;;;;;;;5085790;28;20040;-74
2023/09/02 13:59:08;;;;;;;8.70;5.40;;;;;;;;;;5083826;28;21084;-74
2023/09/02 14:01:39;;;;;;;7.70;5.47;;;;;;;;;;5085477;28;20406;-74
2023/09/02 14:04:12;;;;;;;7.53;5.15;;;;;;;;;;5086203;28;20048;-74
2023/09/02 14:06:43;;;;;;;6.82;5.20;;;;;;;;;;5084686;28;20063;-72
2023/09/02 14:09:24;;;;;;;5.97;5.03;;;;;;;;;;5083824;28;20048;-76
2023/09/02 14:11:56;;;;;;;8.18;4.82;;;;;;;;;;5084582;28;20047;-73
2023/09/02 14:14:27;;;;;;;8.52;5.00;;;;;;;;;;5085387;28;20044;-74
2023/09/02 14:16:57;;;;;;;9.55;4.80;;;;;;;;;;5085394;28;20052;-74
2023/09/02 14:19:28;;;;;;;8.73;5.05;;;;;;;;;;5085297;28;20048;-75
2023/09/02 14:21:59;;;;;;;16.02;5.65;;;;;;;;;;5085202;28;20055;-74
2023/09/02 14:24:29;;;;;;;6.53;4.97;;;;;;;;;;5084834;28;20075;-75
2023/09/02 14:27:11;;;;;;;9.40;4.85;;;;;;;;;;5086012;28;20047;-75
2023/09/02 14:29:42;;;;;;;10.85;4.82;;;;;;;;;;5084627;28;20406;-74
2023/09/02 14:32:13;;;;;;;6.25;4.40;;;;;;;;;;5085676;28;21027;-78
2023/09/02 14:34:46;;;;;;;6.13;4.57;;;;;;;;;;5084502;28;20070;-74
2023/09/02 14:37:18;;;;;;;6.82;5.03;;;;;;;;;;5085431;28;20594;-75
2023/09/02 14:39:51;;;;;;;8.93;4.95;;;;;;;;;;5084659;28;20040;-72
2023/09/02 14:42:22;;;;;;;6.47;5.13;;;;;;;;;;5084897;28;20040;-74
2023/09/02 14:44:57;;;;;;;6.47;5.25;;;;;;;;;;5084198;28;20040;-73
2023/09/02 14:47:27;;;;;;;10.93;5.05;;;;;;;;;;5083307;28;20048;-74
2023/09/02 14:49:59;;;;;;;7.20;5.03;;;;;;;;;;5084511;28;20052;-75
2023/09/02 14:52:35;;;;;;;8.00;5.38;;;;;;;;;;5084349;28;20110;-75
2023/09/02 14:55:06;;;;;;;12.05;8.18;;;;;;;;;;5082305;28;20521;-74
2023/09/02 14:57:37;;;;;;;9.65;6.35;;;;;;;;;;5083733;28;20398;-78